Time;durP1;ratioP1;P1;durP2;ratioP2;P2;SDS_P1;SDS_P2;PMS_P1;PMS_P2;Temp;Humidity;BMP_temperature;BMP_pressure;BME280_temperature;BME280_humidity;BME280_pressure;Samples;Min_cycle;Max_cycle;Signal;HPM_P1;HPM_P2
2023/04/21 00:01:57;;;;;;;9.97;8.97;;;12.90;81.90;12.90;96021.00;;;;5024746;28;20190;-80
2023/04/21 00:04:24;;;;;;;10.63;8.63;;;12.90;81.90;12.90;96017.00;;;;5029084;28;20248;-80
2023/04/21 00:06:52;;;;;;;11.83;9.63;;;12.90;82.00;12.90;96017.00;;;;5028296;28;20211;-80
2023/04/21 00:09:21;;;;;;;12.67;9.13;;;12.90;82.10;13.00;96022.00;;;;5019526;28;20208;-79
2023/04/21 00:11:48;;;;;;;9.80;8.80;;;12.90;82.30;13.00;96021.00;;;;5011818;28;20280;-80
2023/04/21 00:14:15;;;;;;;15.30;9.70;;;12.90;82.50;13.00;96012.00;;;;5026745;28;20285;-79
2023/04/21 00:16:42;;;;;;;11.33;9.70;;;12.90;82.50;13.00;96030.00;;;;5027526;28;20195;-80
2023/04/21 00:19:12;;;;;;;11.43;9.37;;;12.90;82.50;13.00;96020.00;;;;4999184;28;20317;-78
2023/04/21 00:21:40;;;;;;;17.13;10.07;;;12.90;82.50;13.00;96018.00;;;;5029397;28;20273;-80
2023/04/21 00:24:09;;;;;;;10.17;9.07;;;12.90;82.50;13.00;96011.00;;;;5017577;28;20306;-81
2023/04/21 00:26:38;;;;;;;13.17;9.57;;;12.90;82.50;13.00;96021.00;;;;5023954;28;20237;-79
2023/04/21 00:29:05;;;;;;;10.83;9.73;;;12.90;82.50;13.00;96019.00;;;;5019178;28;20851;-79
2023/04/21 00:31:32;;;;;;;17.80;9.43;;;12.90;82.40;13.00;96016.00;;;;5016376;28;20292;-80
2023/04/21 00:33:59;;;;;;;10.93;9.20;;;13.00;82.60;13.00;96010.00;;;;5027058;28;20302;-80
2023/04/21 00:36:27;;;;;;;13.20;10.30;;;13.00;82.70;13.00;96012.00;;;;5020785;28;20201;-80
2023/04/21 00:38:54;;;;;;;10.53;9.30;;;13.00;82.60;13.00;96004.00;;;;5013334;28;20218;-80
2023/04/21 00:41:24;;;;;;;11.20;9.77;;;13.00;82.50;13.00;96005.00;;;;5022068;28;20663;-79
2023/04/21 00:44:04;;;;;;;9.83;8.83;;;13.00;82.40;13.00;95997.00;;;;5022475;28;20254;-80
2023/04/21 00:46:31;;;;;;;9.93;8.73;;;13.00;81.40;13.00;96001.00;;;;5018345;28;20625;-80
2023/04/21 00:48:59;;;;;;;10.37;9.37;;;13.00;82.10;13.00;96003.00;;;;5028288;28;20292;-80
2023/04/21 00:51:31;;;;;;;11.83;8.67;;;13.00;82.30;13.00;95992.00;;;;5020339;28;20232;-80
2023/04/21 00:54:00;;;;;;;11.97;10.07;;;13.00;82.40;13.00;95998.00;;;;5018488;28;20309;-80
2023/04/21 00:56:31;;;;;;;11.03;9.53;;;12.90;82.30;13.00;96001.00;;;;4989741;28;20782;-80
2023/04/21 00:59:01;;;;;;;13.13;9.87;;;12.90;82.10;13.00;95999.00;;;;5018260;28;20340;-80
2023/04/21 01:01:29;;;;;;;10.93;9.80;;;12.90;82.10;12.90;95997.00;;;;5024442;28;20208;-80
2023/04/21 01:03:58;;;;;;;24.63;11.10;;;12.90;82.20;12.90;96001.00;;;;5020040;28;20218;-80
2023/04/21 01:06:28;;;;;;;11.73;10.53;;;12.90;82.20;12.90;96004.00;;;;5006373;28;20600;-79
2023/04/21 01:08:56;;;;;;;11.93;9.33;;;12.90;82.20;12.90;95990.00;;;;5026201;28;20206;-80
2023/04/21 01:11:23;;;;;;;12.07;10.77;;;12.90;82.20;12.90;95992.00;;;;5016453;28;20206;-80
2023/04/21 01:13:53;;;;;;;12.67;10.50;;;12.90;82.90;12.90;95988.00;;;;5044933;28;20217;-80
2023/04/21 01:16:23;;;;;;;13.00;10.70;;;12.90;82.00;12.90;95995.00;;;;5036111;28;20202;-79
2023/04/21 01:18:52;;;;;;;11.50;9.90;;;12.90;82.10;12.90;95994.00;;;;5002202;28;20702;-80
2023/04/21 01:21:20;;;;;;;11.97;9.57;;;12.80;82.20;12.90;95978.00;;;;5000100;28;20302;-79
2023/04/21 01:23:49;;;;;;;14.33;10.73;;;12.80;82.20;12.90;95982.00;;;;5035333;28;20263;-80
2023/04/21 01:26:20;;;;;;;12.27;10.27;;;12.80;82.20;12.90;95994.00;;;;5037985;28;20197;-80
2023/04/21 01:28:48;;;;;;;10.63;9.53;;;12.80;82.00;12.90;95988.00;;;;5020971;28;20217;-80
2023/04/21 01:31:16;;;;;;;12.37;10.60;;;12.80;82.00;12.80;95993.00;;;;5023254;28;20221;-80
2023/04/21 01:33:43;;;;;;;12.10;10.40;;;12.80;81.70;12.80;95982.00;;;;5023615;28;20291;-80
2023/04/21 01:36:11;;;;;;;13.07;10.40;;;12.80;81.60;12.70;95970.00;;;;5001362;28;20225;-80
2023/04/21 01:38:40;;;;;;;11.27;10.00;;;12.70;81.50;12.70;95970.00;;;;5024250;28;20280;-80
2023/04/21 01:41:10;;;;;;;12.17;9.57;;;12.70;81.70;12.70;95971.00;;;;5027440;28;20217;-80
2023/04/21 01:43:38;;;;;;;10.53;9.30;;;12.70;81.80;12.70;95973.00;;;;5033508;28;20245;-80
2023/04/21 01:46:06;;;;;;;12.27;10.20;;;12.70;81.90;12.60;95980.00;;;;5024189;28;20201;-81
2023/04/21 01:48:34;;;;;;;10.73;9.37;;;12.70;81.80;12.60;95985.00;;;;5024608;28;20213;-79
2023/04/21 01:51:01;;;;;;;10.27;9.27;;;12.60;81.60;12.60;95988.00;;;;5023635;28;20198;-79
2023/04/21 01:53:29;;;;;;;10.60;9.50;;;12.60;81.40;12.50;95994.00;;;;5035608;28;20225;-80
2023/04/21 01:55:56;;;;;;;11.10;9.77;;;12.60;81.20;12.50;96001.00;;;;5023022;28;20198;-80
2023/04/21 01:58:25;;;;;;;11.60;9.30;;;12.50;81.00;12.40;96000.00;;;;4998219;28;20657;-80
2023/04/21 02:00:52;;;;;;;14.53;10.37;;;12.50;81.10;12.40;96003.00;;;;5018035;28;20896;-80
2023/04/21 02:03:19;;;;;;;14.00;10.57;;;12.50;81.50;12.40;95999.00;;;;5005371;28;20300;-80
2023/04/21 02:05:47;;;;;;;21.33;11.87;;;12.40;81.70;12.40;96003.00;;;;5016564;28;20201;-80
2023/04/21 02:08:14;;;;;;;16.20;11.60;;;12.40;81.90;12.40;95999.00;;;;5018494;28;20293;-80
2023/04/21 02:10:41;;;;;;;14.50;11.33;;;12.40;82.10;12.40;96005.00;;;;5010491;28;20233;-80
2023/04/21 02:13:10;;;;;;;20.77;10.47;;;12.40;82.20;12.40;95998.00;;;;5026861;28;20214;-80
2023/04/21 02:15:39;;;;;;;11.70;10.50;;;12.40;82.30;12.40;96000.00;;;;5030092;28;20285;-80
2023/04/21 02:18:07;;;;;;;12.50;10.40;;;12.40;82.50;12.40;95997.00;;;;4999463;28;20617;-80
2023/04/21 02:20:34;;;;;;;14.03;11.37;;;12.40;83.40;12.50;95995.00;;;;5021450;28;20594;-80
2023/04/21 02:23:01;;;;;;;12.83;10.93;;;12.40;82.70;12.50;95988.00;;;;5025526;28;20658;-80
2023/04/21 02:25:29;;;;;;;12.67;11.33;;;12.40;82.90;12.50;95991.00;;;;5029019;28;20224;-81
2023/04/21 02:27:57;;;;;;;13.70;11.60;;;12.40;83.00;12.50;95991.00;;;;5010642;28;20202;-80
2023/04/21 02:30:24;;;;;;;12.87;11.03;;;12.40;83.00;12.50;95990.00;;;;5025539;28;20205;-80
2023/04/21 02:32:53;;;;;;;13.00;10.73;;;12.40;83.00;12.50;95980.00;;;;5022335;28;20216;-82
2023/04/21 02:35:20;;;;;;;12.50;11.03;;;12.40;82.90;12.50;95985.00;;;;5017683;28;20738;-80
2023/04/21 02:37:47;;;;;;;13.47;12.00;;;12.40;82.90;12.50;95987.00;;;;5018941;28;20392;-79
2023/04/21 02:40:14;;;;;;;12.00;10.77;;;12.40;82.90;12.50;95986.00;;;;5019204;28;20728;-80
2023/04/21 02:42:41;;;;;;;12.30;11.00;;;12.40;82.80;12.50;95985.00;;;;5000487;28;20249;-80
2023/04/21 02:45:11;;;;;;;14.07;11.20;;;12.40;82.70;12.50;95974.00;;;;5017390;28;20208;-80
2023/04/21 02:47:38;;;;;;;13.40;11.10;;;12.40;82.60;12.50;95984.00;;;;5018311;28;20706;-80
2023/04/21 02:50:07;;;;;;;14.20;11.00;;;12.40;82.50;12.50;95976.00;;;;5024312;28;20658;-79
2023/04/21 02:52:36;;;;;;;12.10;10.80;;;12.50;82.50;12.50;95971.00;;;;5023121;28;20221;-79
2023/04/21 02:55:04;;;;;;;12.77;10.83;;;12.40;82.30;12.50;95972.00;;;;5022807;28;20593;-81
2023/04/21 02:57:32;;;;;;;12.50;11.03;;;12.40;82.20;12.50;95963.00;;;;5002434;28;20212;-80
2023/04/21 02:59:59;;;;;;;14.77;11.57;;;12.40;82.20;12.40;95967.00;;;;5000617;28;20256;-79
2023/04/21 03:02:26;;;;;;;12.97;10.10;;;12.40;82.10;12.40;95960.00;;;;5016879;28;20280;-79
2023/04/21 03:04:55;;;;;;;11.37;10.00;;;12.40;82.20;12.40;95964.00;;;;5026233;28;20245;-79
2023/04/21 03:07:23;;;;;;;12.53;11.00;;;12.40;82.30;12.40;95953.00;;;;5025333;28;20265;-79
2023/04/21 03:09:50;;;;;;;11.97;10.67;;;12.40;82.30;12.40;95954.00;;;;5015264;28;20194;-80
2023/04/21 03:12:18;;;;;;;11.30;10.17;;;12.40;82.30;12.40;95962.00;;;;5008399;28;20289;-79
2023/04/21 03:14:45;;;;;;;14.53;11.63;;;12.30;82.20;12.40;95960.00;;;;5015834;28;20281;-79
2023/04/21 03:17:12;;;;;;;12.23;10.93;;;12.30;82.20;12.30;95965.00;;;;5017869;28;20265;-80
2023/04/21 03:19:40;;;;;;;11.20;10.03;;;12.30;82.30;12.30;95963.00;;;;5020758;28;20222;-80
2023/04/21 03:22:07;;;;;;;12.03;10.70;;;12.30;82.40;12.30;95957.00;;;;5017639;28;20194;-80
2023/04/21 03:24:36;;;;;;;12.53;10.37;;;12.30;82.60;12.30;95967.00;;;;4993054;28;20615;-80
2023/04/21 03:27:05;;;;;;;12.77;10.77;;;12.30;82.60;12.30;95970.00;;;;5028271;28;20198;-80
2023/04/21 03:29:34;;;;;;;12.70;11.23;;;12.30;82.60;12.30;95967.00;;;;5041145;28;20222;-81
2023/04/21 03:32:01;;;;;;;11.90;10.47;;;12.30;82.50;12.20;95965.00;;;;5013521;28;20198;-80
2023/04/21 03:34:28;;;;;;;17.13;10.37;;;12.20;82.30;12.20;95974.00;;;;5005175;28;20290;-80
2023/04/21 03:36:56;;;;;;;15.40;10.07;;;12.20;82.30;12.20;95967.00;;;;5016275;28;20262;-80
2023/04/21 03:39:25;;;;;;;11.83;10.50;;;12.20;82.30;12.20;95964.00;;;;5016830;28;20288;-81
2023/04/21 03:41:54;;;;;;;12.70;10.20;;;12.20;82.30;12.10;95972.00;;;;5014835;28;20285;-80
2023/04/21 03:44:21;;;;;;;14.60;10.67;;;12.20;82.20;12.10;95972.00;;;;5022161;28;20798;-80
2023/04/21 03:46:48;;;;;;;13.33;10.73;;;12.20;82.30;12.10;95981.00;;;;5018299;28;20202;-80
2023/04/21 03:49:15;;;;;;;12.57;11.23;;;12.10;82.20;12.10;95974.00;;;;5015437;28;20213;-80
2023/04/21 03:51:42;;;;;;;12.73;10.90;;;12.10;82.20;12.10;95981.00;;;;5013336;28;20208;-79
2023/04/21 03:54:10;;;;;;;14.43;12.00;;;12.10;82.10;12.10;95983.00;;;;5015552;28;20245;-80
2023/04/21 03:56:37;;;;;;;13.73;11.37;;;12.10;82.90;12.10;95986.00;;;;4984475;28;20267;-80
2023/04/21 03:59:06;;;;;;;11.97;10.20;;;12.10;82.10;12.00;95984.00;;;;5022414;28;20198;-80
2023/04/21 04:01:34;;;;;;;13.33;10.73;;;12.00;81.90;12.00;95987.00;;;;4996527;28;20193;-79
2023/04/21 04:04:02;;;;;;;12.83;10.60;;;12.00;82.00;12.00;95985.00;;;;5025151;28;20281;-80
2023/04/21 04:06:30;;;;;;;12.70;10.40;;;12.00;82.00;12.00;95983.00;;;;5018892;28;20232;-79
2023/04/21 04:09:01;;;;;;;13.27;11.23;;;12.00;82.20;12.00;95977.00;;;;5019100;28;20269;-80
2023/04/21 04:11:28;;;;;;;11.83;10.13;;;12.00;82.30;11.90;95960.00;;;;5000403;28;20217;-79
2023/04/21 04:13:55;;;;;;;13.70;11.00;;;12.00;82.50;11.90;95972.00;;;;4986216;28;20228;-80
2023/04/21 04:16:24;;;;;;;12.93;10.40;;;11.90;82.40;11.90;95971.00;;;;5022480;28;20221;-80
2023/04/21 04:18:51;;;;;;;12.13;10.73;;;11.90;82.30;11.90;95978.00;;;;5026883;28;20571;-81
2023/04/21 04:21:19;;;;;;;11.30;10.00;;;11.90;82.50;11.90;95978.00;;;;5023674;28;20303;-81
2023/04/21 04:23:47;;;;;;;13.33;11.10;;;11.90;82.50;12.00;95978.00;;;;5023813;28;20651;-82
2023/04/21 04:26:14;;;;;;;12.17;10.87;;;11.90;82.50;12.00;95962.00;;;;5019902;28;20280;-81
2023/04/21 04:28:42;;;;;;;13.27;11.30;;;11.90;82.50;12.00;95974.00;;;;5024645;28;20201;-82
2023/04/21 04:31:09;;;;;;;11.80;9.93;;;11.90;82.60;12.00;95971.00;;;;5002065;28;20206;-81
2023/04/21 04:33:42;;;;;;;13.07;11.47;;;11.90;82.60;12.10;95970.00;;;;5017803;28;20650;-82
2023/04/21 04:36:10;;;;;;;13.73;11.60;;;11.90;82.40;12.10;95973.00;;;;5016470;28;20221;-84
2023/04/21 04:38:39;;;;;;;11.90;10.70;;;11.90;82.60;12.10;95970.00;;;;5015962;28;20225;-83
2023/04/21 04:41:07;;;;;;;12.43;11.13;;;11.90;82.60;12.10;95963.00;;;;5017959;28;20217;-82
2023/04/21 04:43:37;;;;;;;14.23;11.97;;;11.90;82.60;12.10;95962.00;;;;5015905;28;20249;-83
2023/04/21 04:46:07;;;;;;;13.03;11.37;;;11.90;82.70;12.10;95977.00;;;;5023071;28;20226;-82
2023/04/21 04:48:35;;;;;;;12.27;10.83;;;11.90;82.70;12.10;95975.00;;;;4997511;28;20198;-83
2023/04/21 04:51:04;;;;;;;13.10;11.27;;;11.90;83.00;12.20;95980.00;;;;5010699;28;20258;-84
2023/04/21 04:53:31;;;;;;;14.40;11.93;;;11.90;83.10;12.20;96003.00;;;;5015998;28;20226;-82
2023/04/21 04:55:59;;;;;;;14.57;11.40;;;11.90;83.20;12.20;96005.00;;;;5005768;28;20201;-83
2023/04/21 04:58:26;;;;;;;16.50;12.53;;;12.00;83.40;12.20;96001.00;;;;5017320;28;20644;-82
2023/04/21 05:00:54;;;;;;;14.33;11.67;;;12.00;83.40;12.20;96004.00;;;;5018690;28;20309;-82
2023/04/21 05:03:21;;;;;;;15.27;13.10;;;12.00;83.50;12.30;95995.00;;;;5019303;28;20638;-82
2023/04/21 05:05:48;;;;;;;17.53;13.50;;;12.00;83.40;12.30;96000.00;;;;5021347;28;20277;-84
2023/04/21 05:08:17;;;;;;;16.20;13.40;;;12.10;83.60;12.30;95994.00;;;;4999648;28;20237;-81
2023/04/21 05:10:55;;;;;;;16.60;13.03;;;12.00;83.50;12.40;95990.00;;;;5022018;28;20265;-83
2023/04/21 05:13:23;;;;;;;18.27;14.17;;;12.10;83.50;12.40;96001.00;;;;5016555;28;20260;-82
2023/04/21 05:15:56;;;;;;;19.53;13.87;;;12.10;84.10;12.40;96004.00;;;;5019935;28;20245;-83
2023/04/21 05:18:25;;;;;;;15.87;12.77;;;12.20;83.50;12.50;96008.00;;;;5036438;28;20202;-83
2023/04/21 05:20:53;;;;;;;17.87;13.10;;;12.20;83.60;12.50;96009.00;;;;5019082;28;20218;-85
2023/04/21 05:23:21;;;;;;;18.47;13.83;;;12.20;83.70;12.50;96006.00;;;;4998755;28;20226;-83
2023/04/21 05:25:51;;;;;;;19.43;13.53;;;12.20;83.70;12.50;96012.00;;;;5021106;28;20198;-84
2023/04/21 05:28:20;;;;;;;21.03;13.83;;;12.30;83.80;12.60;96007.00;;;;5018894;28;20198;-81
2023/04/21 05:30:47;;;;;;;14.83;12.53;;;12.30;83.70;12.60;96015.00;;;;5008161;28;20216;-83
2023/04/21 05:33:17;;;;;;;16.10;12.73;;;12.30;83.70;12.60;96017.00;;;;5021805;28;20225;-83
2023/04/21 05:35:45;;;;;;;19.60;13.77;;;12.40;83.90;12.70;96018.00;;;;5002189;28;20228;-82
2023/04/21 05:38:13;;;;;;;16.00;13.17;;;12.40;83.80;12.70;96023.00;;;;5005902;28;20221;-83
2023/04/21 05:40:41;;;;;;;14.73;12.47;;;12.40;83.80;12.70;96026.00;;;;5008697;28;20230;-83
2023/04/21 05:43:08;;;;;;;16.10;12.97;;;12.50;83.80;12.80;96027.00;;;;5001100;28;20276;-82
2023/04/21 05:45:40;;;;;;;13.83;11.57;;;12.50;83.80;12.80;96023.00;;;;5024965;28;20325;-82
2023/04/21 05:48:08;;;;;;;16.23;13.20;;;12.50;83.70;12.80;96021.00;;;;5016872;28;20190;-86
2023/04/21 05:50:35;;;;;;;17.77;13.37;;;12.60;83.90;12.90;96014.00;;;;5039577;28;20206;-85
2023/04/21 05:53:02;;;;;;;23.97;14.60;;;12.60;83.90;12.90;96007.00;;;;5022943;28;20221;-83
2023/04/21 05:55:29;;;;;;;18.03;14.17;;;12.60;83.90;12.90;96014.00;;;;5037939;28;20193;-84
2023/04/21 05:57:59;;;;;;;17.43;14.10;;;12.70;83.90;13.00;96004.00;;;;5031996;28;20202;-84
2023/04/21 06:00:27;;;;;;;17.97;14.53;;;12.70;84.00;13.00;96005.00;;;;5020327;28;20313;-84
2023/04/21 06:02:54;;;;;;;17.10;14.37;;;12.70;83.80;13.10;96005.00;;;;5017541;28;20301;-83
2023/04/21 06:05:22;;;;;;;18.23;14.17;;;12.80;84.10;13.10;96001.00;;;;5027327;28;20245;-83
2023/04/21 06:07:51;;;;;;;16.73;14.10;;;12.80;84.00;13.20;96003.00;;;;5022170;28;20229;-83
2023/04/21 06:10:19;;;;;;;19.27;15.23;;;12.80;84.00;13.20;96002.00;;;;5034229;28;20198;-84
2023/04/21 06:12:46;;;;;;;19.03;14.73;;;12.90;84.10;13.30;96006.00;;;;5014866;28;20257;-84
2023/04/21 06:15:15;;;;;;;21.20;15.07;;;12.90;84.10;13.30;96003.00;;;;5022680;28;20285;-84
2023/04/21 06:17:42;;;;;;;21.47;15.10;;;13.00;84.10;13.40;96003.00;;;;5004702;28;20197;-84
2023/04/21 06:20:11;;;;;;;18.03;14.60;;;13.10;84.10;13.50;96005.00;;;;5021169;28;20253;-84
2023/04/21 06:22:38;;;;;;;19.33;14.93;;;13.10;84.10;13.60;96009.00;;;;5001942;28;20305;-85
2023/04/21 06:25:08;;;;;;;20.43;16.40;;;13.20;84.00;13.70;96016.00;;;;5030463;28;20621;-83
2023/04/21 06:27:35;;;;;;;21.27;16.07;;;13.30;84.10;13.70;96005.00;;;;5008137;28;20229;-84
2023/04/21 06:30:02;;;;;;;28.90;16.17;;;13.30;84.30;13.90;96020.00;;;;5018030;28;20220;-85
2023/04/21 06:32:31;;;;;;;20.57;16.87;;;13.40;84.30;14.00;96019.00;;;;5018361;28;20605;-84
2023/04/21 06:34:59;;;;;;;20.90;15.73;;;13.50;84.00;14.00;96008.00;;;;5017952;28;20194;-85
2023/04/21 06:37:26;;;;;;;21.03;16.10;;;13.60;83.60;14.10;96011.00;;;;5018632;28;20213;-85
2023/04/21 06:39:53;;;;;;;21.10;16.47;;;13.60;83.10;14.20;96010.00;;;;5020861;28;20232;-83
2023/04/21 06:42:20;;;;;;;21.97;16.67;;;13.70;82.90;14.30;96009.00;;;;5008494;28;20244;-84
2023/04/21 06:44:47;;;;;;;18.57;15.67;;;13.70;83.10;14.30;96021.00;;;;5027343;28;20229;-84
2023/04/21 06:47:15;;;;;;;19.60;16.23;;;13.80;83.10;14.40;96013.00;;;;5030874;28;20289;-84
2023/04/21 06:49:44;;;;;;;20.07;15.90;;;13.90;83.20;14.40;96017.00;;;;5018415;28;20210;-85
2023/04/21 06:52:13;;;;;;;19.80;15.83;;;13.90;83.10;14.50;96021.00;;;;5034983;28;20198;-87
2023/04/21 06:54:41;;;;;;;22.43;17.23;;;13.90;84.00;14.60;96015.00;;;;5044045;28;20257;-86
2023/04/21 06:57:10;;;;;;;19.20;16.07;;;14.00;83.10;14.70;96018.00;;;;5021060;28;20182;-87
2023/04/21 06:59:39;;;;;;;18.93;15.80;;;14.10;83.20;14.80;96025.00;;;;5021235;28;20182;-83
2023/04/21 07:02:08;;;;;;;19.07;15.53;;;14.20;83.20;14.90;96021.00;;;;5033589;28;20222;-84
2023/04/21 07:04:37;;;;;;;22.60;17.73;;;14.30;83.50;15.00;96024.00;;;;5002840;28;20248;-83
2023/04/21 07:07:06;;;;;;;20.73;16.03;;;14.40;83.60;15.10;96025.00;;;;5017010;28;20217;-84
2023/04/21 07:09:33;;;;;;;19.47;15.93;;;14.40;83.10;15.10;96028.00;;;;5024385;28;20259;-84
2023/04/21 07:12:01;;;;;;;17.93;14.90;;;14.50;83.00;15.20;96021.00;;;;5019880;28;20241;-84
2023/04/21 07:14:28;;;;;;;19.80;16.47;;;14.60;82.90;15.20;96024.00;;;;5018046;28;20296;-84
2023/04/21 07:16:56;;;;;;;19.67;15.83;;;14.70;82.90;15.30;96026.00;;;;5019903;28;20230;-85
2023/04/21 07:19:24;;;;;;;17.90;15.03;;;14.80;83.00;15.40;96019.00;;;;5026238;28;20225;-84
2023/04/21 07:21:51;;;;;;;18.13;14.87;;;14.80;82.80;15.40;96014.00;;;;5022177;28;20221;-83
2023/04/21 07:24:20;;;;;;;18.27;14.77;;;14.90;82.60;15.40;96019.00;;;;5019468;28;20256;-84
2023/04/21 07:26:47;;;;;;;18.67;15.30;;;14.90;82.20;15.50;96021.00;;;;5023608;28;20697;-83
2023/04/21 07:29:16;;;;;;;18.93;15.43;;;15.00;82.20;15.50;96029.00;;;;4998585;28;20202;-85
2023/04/21 07:31:47;;;;;;;18.70;15.30;;;15.00;82.40;15.50;96029.00;;;;4996218;28;20781;-84
2023/04/21 07:34:14;;;;;;;18.77;14.80;;;15.10;82.00;15.60;96017.00;;;;5014402;28;20917;-85
2023/04/21 07:36:43;;;;;;;18.00;15.27;;;15.10;82.00;15.60;96025.00;;;;5014077;28;20209;-84
2023/04/21 07:39:10;;;;;;;19.37;15.53;;;15.20;82.10;15.70;96028.00;;;;4997283;28;20288;-85
2023/04/21 07:41:42;;;;;;;19.40;15.03;;;15.20;82.00;15.80;96028.00;;;;4998062;28;20222;-85
2023/04/21 07:44:09;;;;;;;18.83;15.17;;;15.30;82.00;15.90;96032.00;;;;4998547;28;20226;-84
2023/04/21 07:46:37;;;;;;;18.70;15.13;;;15.40;81.80;16.00;96027.00;;;;5020597;28;20641;-86
2023/04/21 07:49:08;;;;;;;16.90;13.50;;;15.40;82.50;16.00;96027.00;;;;4997356;28;20708;-83
2023/04/21 07:51:36;;;;;;;15.90;13.40;;;15.50;81.80;16.00;96028.00;;;;5009457;28;20210;-85
2023/04/21 07:54:03;;;;;;;15.10;12.73;;;15.50;81.60;16.10;96027.00;;;;5014365;28;20241;-85
2023/04/21 07:56:31;;;;;;;14.30;12.33;;;15.50;81.20;16.10;96025.00;;;;4995240;28;20754;-86
2023/04/21 07:58:59;;;;;;;16.53;13.23;;;15.60;81.20;16.20;96014.00;;;;4994269;28;20201;-85
2023/04/21 08:01:29;;;;;;;16.23;14.00;;;15.60;80.90;16.30;96014.00;;;;5018525;28;20253;-85
2023/04/21 08:03:56;;;;;;;17.33;14.77;;;15.60;82.10;16.40;96014.00;;;;5004165;28;20226;-86
2023/04/21 08:06:24;;;;;;;16.63;14.07;;;15.70;81.90;16.70;96021.00;;;;5022707;28;20197;-84
2023/04/21 08:08:52;;;;;;;16.53;14.00;;;15.80;82.60;16.90;96020.00;;;;5021139;28;20191;-90
2023/04/21 08:11:19;;;;;;;16.17;13.70;;;16.00;83.20;17.00;96027.00;;;;5007102;28;20198;-85
2023/04/21 08:13:47;;;;;;;15.07;13.47;;;16.10;83.50;17.20;96026.00;;;;5008383;28;20214;-86
2023/04/21 08:16:15;;;;;;;17.13;14.10;;;16.30;82.80;17.30;96025.00;;;;5034213;28;20201;-85
2023/04/21 08:18:43;;;;;;;16.80;14.43;;;16.40;82.40;17.40;96025.00;;;;5030160;28;20244;-85
2023/04/21 08:21:10;;;;;;;14.70;13.07;;;16.50;82.80;17.60;96028.00;;;;4996638;28;20278;-86
2023/04/21 08:23:39;;;;;;;16.73;12.93;;;16.70;82.80;17.80;96030.00;;;;5014263;28;20268;-85
2023/04/21 08:26:07;;;;;;;16.63;13.80;;;16.80;83.00;18.00;96031.00;;;;5025332;28;20259;-84
2023/04/21 08:28:34;;;;;;;14.13;12.47;;;16.90;83.00;18.20;96031.00;;;;5006154;28;20207;-87
2023/04/21 08:31:02;;;;;;;16.90;13.37;;;17.10;82.60;18.40;96029.00;;;;5012582;28;20296;-84
2023/04/21 08:33:30;;;;;;;15.67;13.43;;;17.30;82.60;18.50;96040.00;;;;4999437;28;20673;-83
2023/04/21 08:35:58;;;;;;;15.07;13.13;;;17.40;82.10;18.70;96036.00;;;;5020675;28;20222;-84
2023/04/21 08:38:27;;;;;;;13.90;12.40;;;17.60;82.00;18.90;96035.00;;;;5011777;28;20198;-85
2023/04/21 08:40:59;;;;;;;14.30;12.27;;;17.70;81.60;19.10;96041.00;;;;5011977;28;20587;-85
2023/04/21 08:43:26;;;;;;;14.73;12.80;;;17.90;81.60;19.20;96041.00;;;;5016917;28;20259;-84
2023/04/21 08:45:55;;;;;;;15.37;13.30;;;18.00;81.50;19.20;96046.00;;;;5002030;28;20239;-85
2023/04/21 08:48:23;;;;;;;13.90;12.33;;;18.10;80.90;19.30;96044.00;;;;5010796;28;20229;-84
2023/04/21 08:50:53;;;;;;;14.30;12.80;;;18.20;80.30;19.40;96051.00;;;;5014110;28;20221;-83
2023/04/21 08:53:21;;;;;;;14.23;12.73;;;18.30;79.60;19.40;96042.00;;;;4994671;28;20233;-85
2023/04/21 08:55:53;;;;;;;13.43;12.03;;;18.40;79.90;19.60;96044.00;;;;4995664;28;20194;-85
2023/04/21 08:58:22;;;;;;;12.60;11.33;;;18.40;78.50;19.80;96041.00;;;;5016475;28;20197;-85
2023/04/21 09:00:50;;;;;;;14.00;11.53;;;18.50;80.50;20.10;96039.00;;;;5020547;28;20756;-83
2023/04/21 09:03:23;;;;;;;12.00;10.80;;;18.70;80.90;20.40;96041.00;;;;5015396;28;20221;-83
2023/04/21 09:06:01;;;;;;;13.40;12.00;;;18.80;80.20;20.80;96050.00;;;;5029826;28;20212;-84
2023/04/21 09:08:29;;;;;;;12.73;11.10;;;19.10;80.80;21.10;96048.00;;;;5011451;28;20210;-84
2023/04/21 09:10:58;;;;;;;12.97;11.13;;;19.30;83.20;21.60;96050.00;;;;5016116;28;20213;-86
2023/04/21 09:13:32;;;;;;;11.60;10.40;;;19.60;84.10;21.90;96047.00;;;;5014402;28;21716;-82
2023/04/21 09:16:01;;;;;;;10.67;9.27;;;19.90;83.40;22.30;96054.00;;;;5016348;28;20194;-83
2023/04/21 09:18:34;;;;;;;10.87;9.87;;;20.30;83.90;22.50;96055.00;;;;5030389;28;20308;-84
2023/04/21 09:21:12;;;;;;;10.63;9.53;;;20.50;82.00;22.70;96051.00;;;;5014615;28;20244;-85
2023/04/21 09:23:44;;;;;;;10.50;9.17;;;20.80;79.40;22.90;96053.00;;;;5005148;28;20220;-82
2023/04/21 09:26:13;;;;;;;10.23;9.23;;;21.00;80.30;23.10;96056.00;;;;5018443;28;20205;-83
2023/04/21 09:28:44;;;;;;;11.10;9.90;;;21.20;80.70;23.20;96056.00;;;;5022269;28;20287;-82
2023/04/21 09:31:18;;;;;;;11.33;10.13;;;21.30;78.10;23.10;96055.00;;;;5002214;28;20291;-84
2023/04/21 09:33:48;;;;;;;10.47;9.43;;;21.40;77.00;23.00;96050.00;;;;5020105;28;20311;-83
2023/04/21 09:36:21;;;;;;;10.23;9.27;;;21.40;77.60;23.00;96050.00;;;;5008581;28;20327;-84
2023/04/21 09:38:56;;;;;;;10.37;9.37;;;21.50;75.70;23.00;96045.00;;;;5017875;28;20675;-85
2023/04/21 09:41:24;;;;;;;10.17;9.17;;;21.50;77.20;23.10;96044.00;;;;5007568;28;20505;-84
2023/04/21 09:43:52;;;;;;;12.53;8.87;;;21.60;77.60;23.20;96044.00;;;;4998278;28;20257;-82
2023/04/21 09:46:21;;;;;;;10.37;9.13;;;21.70;77.90;23.40;96054.00;;;;5011830;28;21032;-83
2023/04/21 09:48:48;;;;;;;9.57;8.60;;;21.90;78.40;23.70;96052.00;;;;5017875;28;20202;-79
2023/04/21 09:51:17;;;;;;;12.60;9.30;;;22.10;78.50;23.90;96053.00;;;;5002807;28;20202;-82
2023/04/21 09:53:48;;;;;;;8.90;8.00;;;22.30;79.10;24.10;96046.00;;;;5029605;28;20311;-82
2023/04/21 09:56:21;;;;;;;8.70;7.90;;;22.50;79.20;24.40;96040.00;;;;5021634;28;20289;-82
2023/04/21 09:58:54;;;;;;;10.27;8.53;;;22.80;80.40;24.70;96041.00;;;;5022359;28;20253;-83
2023/04/21 10:01:24;;;;;;;9.37;8.43;;;23.10;81.00;25.10;96040.00;;;;5017980;28;20228;-83
2023/04/21 10:03:53;;;;;;;9.50;8.60;;;23.40;82.30;25.30;96042.00;;;;5019593;28;20609;-81
2023/04/21 10:06:20;;;;;;;9.43;8.53;;;23.70;79.80;25.50;96036.00;;;;5018145;28;20334;-81
2023/04/21 10:08:51;;;;;;;8.83;7.97;;;23.90;80.90;25.70;96049.00;;;;5017553;28;20275;-83
2023/04/21 10:11:18;;;;;;;9.33;8.43;;;24.20;79.40;25.90;96037.00;;;;4993043;28;20679;-84
2023/04/21 10:13:49;;;;;;;9.87;8.37;;;24.40;80.30;26.00;96037.00;;;;5030620;28;20254;-83
2023/04/21 10:16:20;;;;;;;8.83;8.00;;;24.60;80.80;26.10;96039.00;;;;5013081;28;20198;-83
2023/04/21 10:18:47;;;;;;;9.77;8.43;;;24.80;80.00;26.10;96033.00;;;;5016266;28;20667;-83
2023/04/21 10:21:23;;;;;;;8.87;8.03;;;24.90;79.50;26.00;96033.00;;;;5019649;28;20321;-79
2023/04/21 10:23:53;;;;;;;8.73;8.03;;;24.90;76.80;25.80;96035.00;;;;5027441;28;20221;-83
2023/04/21 10:26:24;;;;;;;8.10;7.37;;;24.90;74.70;25.60;96030.00;;;;5019900;28;20202;-79
2023/04/21 10:28:59;;;;;;;8.77;7.20;;;24.90;74.50;25.40;96029.00;;;;5026309;28;20281;-84
2023/04/21 10:31:36;;;;;;;7.73;7.03;;;24.70;72.20;25.30;96026.00;;;;5016440;28;20617;-81
2023/04/21 10:34:17;;;;;;;8.23;7.43;;;24.70;73.10;25.20;96018.00;;;;5029016;28;20724;-83
2023/04/21 10:37:10;;;;;;;8.13;7.27;;;24.60;72.70;25.10;96020.00;;;;5027527;28;20194;-83
2023/04/21 10:39:54;;;;;;;7.43;6.73;;;24.50;73.20;25.00;96021.00;;;;5015341;28;20198;-83
2023/04/21 10:42:35;;;;;;;7.37;5.47;;;24.40;72.90;24.90;96016.00;;;;5008683;28;20245;-83
2023/04/21 10:45:11;;;;;;;6.57;5.97;;;24.40;73.40;24.70;96016.00;;;;5017582;28;20700;-84
2023/04/21 10:47:47;;;;;;;6.27;5.77;;;24.30;72.90;24.40;96014.00;;;;5022933;28;20195;-83
2023/04/21 10:50:29;;;;;;;6.27;5.77;;;24.10;71.30;24.20;96022.00;;;;5026503;28;20254;-81